Time;durP1;ratioP1;P1;durP2;ratioP2;P2;SDS_P1;SDS_P2;PMS_P1;PMS_P2;Temp;Humidity;BMP_temperature;BMP_pressure;BME280_temperature;BME280_humidity;BME280_pressure;Samples;Min_cycle;Max_cycle;Signal;HPM_P1;HPM_P2
2021/06/29 00:00:28;;;;;;;17.95;12.15;;;18.80;99.90;;;;;;5042084;28;20435;-51
2021/06/29 00:03:02;;;;;;;14.80;10.80;;;18.80;99.90;;;;;;5030914;28;20410;-53
2021/06/29 00:05:30;;;;;;;15.35;11.48;;;18.70;99.90;;;;;;5039204;28;20417;-52
2021/06/29 00:07:56;;;;;;;15.43;10.77;;;18.70;99.90;;;;;;5033484;28;20474;-51
2021/06/29 00:10:23;;;;;;;12.50;9.98;;;18.70;99.90;;;;;;5029821;28;20474;-50
2021/06/29 00:12:49;;;;;;;14.40;10.05;;;18.60;99.90;;;;;;5030062;28;20387;-50
2021/06/29 00:15:15;;;;;;;11.97;8.80;;;18.30;99.90;;;;;;5029022;28;20429;-50
2021/06/29 00:17:41;;;;;;;12.27;8.55;;;18.30;99.90;;;;;;5040926;28;20487;-51
2021/06/29 00:20:07;;;;;;;15.27;9.43;;;18.30;99.90;;;;;;5018181;28;20570;-51
2021/06/29 00:22:33;;;;;;;10.65;8.18;;;18.30;99.90;;;;;;5041054;28;20380;-50
2021/06/29 00:24:59;;;;;;;11.87;8.00;;;18.20;99.90;;;;;;5032643;28;20407;-50
2021/06/29 00:27:24;;;;;;;10.90;7.63;;;18.30;99.90;;;;;;5029248;28;20531;-50
2021/06/29 00:29:50;;;;;;;10.47;8.60;;;18.20;99.90;;;;;;5028396;28;20871;-49
2021/06/29 00:32:16;;;;;;;11.77;8.20;;;18.00;99.90;;;;;;5028567;28;20382;-49
2021/06/29 00:34:41;;;;;;;10.65;7.60;;;18.00;99.90;;;;;;5029333;28;20407;-49
2021/06/29 00:37:07;;;;;;;13.50;8.15;;;18.00;99.90;;;;;;5028749;28;20406;-50
2021/06/29 00:39:34;;;;;;;12.23;8.20;;;18.00;99.90;;;;;;5029477;28;20862;-49
2021/06/29 00:42:01;;;;;;;9.25;7.57;;;18.10;99.90;;;;;;5027695;28;20387;-50
2021/06/29 00:44:27;;;;;;;12.02;8.00;;;18.10;99.90;;;;;;5029281;28;20475;-49
2021/06/29 00:46:54;;;;;;;9.05;7.38;;;19.20;99.90;;;;;;5029239;28;20391;-52
2021/06/29 00:49:20;;;;;;;9.63;7.07;;;18.20;99.90;;;;;;5030086;28;20379;-49
2021/06/29 00:51:46;;;;;;;10.00;7.50;;;18.20;99.90;;;;;;5029557;28;20872;-50
2021/06/29 00:54:13;;;;;;;11.07;7.90;;;18.20;99.90;;;;;;5027288;28;20510;-49
2021/06/29 00:56:39;;;;;;;10.10;7.50;;;18.20;99.90;;;;;;5029445;28;20387;-49
2021/06/29 00:59:05;;;;;;;12.65;7.70;;;18.30;99.90;;;;;;5028798;28;20390;-49
2021/06/29 01:01:31;;;;;;;9.70;7.50;;;18.30;99.90;;;;;;5029621;28;20734;-50
2021/06/29 01:03:57;;;;;;;10.13;6.90;;;18.30;99.90;;;;;;5032392;28;20454;-50
2021/06/29 01:06:23;;;;;;;10.93;7.00;;;18.20;99.90;;;;;;5033116;28;20912;-49
2021/06/29 01:08:48;;;;;;;10.30;6.60;;;18.30;99.90;;;;;;5033341;28;20895;-50
2021/06/29 01:11:14;;;;;;;11.85;6.28;;;18.30;99.90;;;;;;5032345;28;20386;-51
2021/06/29 01:13:43;;;;;;;10.55;6.70;;;18.30;99.90;;;;;;5033596;28;20397;-49
2021/06/29 01:16:09;;;;;;;10.57;6.80;;;18.30;99.90;;;;;;5032430;28;20393;-50
2021/06/29 01:18:40;;;;;;;12.85;7.85;;;18.30;99.90;;;;;;5033367;28;20387;-50
2021/06/29 01:21:11;;;;;;;10.18;7.47;;;18.30;99.90;;;;;;5032484;28;20371;-49
2021/06/29 01:23:38;;;;;;;10.88;7.70;;;18.40;99.90;;;;;;5033009;28;20509;-50
2021/06/29 01:26:23;;;;;;;12.57;7.80;;;18.40;99.90;;;;;;5031920;28;20379;-50
2021/06/29 01:31:16;;;;;;;10.23;7.20;;;18.40;99.90;;;;;;5032294;28;20470;-50
2021/06/29 01:33:42;;;;;;;9.17;6.73;;;18.50;99.90;;;;;;5032890;28;20474;-50
2021/06/29 01:36:09;;;;;;;9.77;7.30;;;18.40;99.90;;;;;;5032144;28;20387;-50
2021/06/29 01:38:34;;;;;;;11.10;7.57;;;18.50;99.90;;;;;;5033463;28;20979;-50
2021/06/29 01:41:00;;;;;;;10.30;7.40;;;18.60;99.90;;;;;;5032073;28;20407;-50
2021/06/29 01:43:44;;;;;;;12.38;7.35;;;18.70;99.90;;;;;;5032587;28;20502;-50
2021/06/29 01:46:10;;;;;;;12.27;7.30;;;18.70;99.90;;;;;;5031897;28;20394;-50
2021/06/29 01:48:36;;;;;;;9.20;7.77;;;18.60;99.90;;;;;;5032750;28;20379;-51
2021/06/29 01:51:02;;;;;;;11.32;8.25;;;18.60;99.90;;;;;;5031581;28;20397;-50
2021/06/29 01:53:27;;;;;;;17.90;10.10;;;18.40;99.90;;;;;;5032537;28;20493;-50
2021/06/29 01:55:53;;;;;;;14.50;10.13;;;18.40;99.90;;;;;;5032740;28;20391;-50
2021/06/29 01:58:26;;;;;;;12.70;9.40;;;18.30;99.90;;;;;;5031883;28;20387;-50
2021/06/29 02:00:53;;;;;;;15.63;9.90;;;18.20;99.90;;;;;;5032511;28;20737;-50
2021/06/29 02:03:18;;;;;;;12.23;8.60;;;18.20;99.90;;;;;;5031457;28;20447;-51
2021/06/29 02:05:44;;;;;;;13.52;8.95;;;18.40;99.90;;;;;;5032257;28;20827;-51
2021/06/29 02:08:10;;;;;;;12.60;8.87;;;18.50;99.90;;;;;;5031640;28;20387;-51
2021/06/29 02:10:35;;;;;;;12.80;9.60;;;18.50;99.90;;;;;;5032568;28;20406;-51
2021/06/29 02:13:01;;;;;;;12.95;9.90;;;18.60;99.90;;;;;;5031310;28;20383;-50
2021/06/29 02:15:27;;;;;;;16.23;10.05;;;18.70;99.90;;;;;;5032211;28;20519;-51
2021/06/29 02:17:53;;;;;;;11.23;9.23;;;18.70;99.90;;;;;;5032396;28;20379;-50
2021/06/29 02:20:18;;;;;;;11.80;8.75;;;18.70;99.90;;;;;;5029874;28;20391;-51
2021/06/29 02:22:46;;;;;;;12.45;9.10;;;18.70;99.90;;;;;;5031597;28;20494;-50
2021/06/29 02:25:13;;;;;;;11.80;8.07;;;18.80;99.90;;;;;;5031111;28;20411;-50
2021/06/29 02:27:39;;;;;;;11.97;8.27;;;18.80;99.90;;;;;;5031851;28;20380;-50
2021/06/29 02:30:06;;;;;;;12.23;8.40;;;18.80;99.90;;;;;;5030796;28;20394;-50
2021/06/29 02:32:32;;;;;;;11.57;8.13;;;18.90;99.90;;;;;;5031846;28;20876;-50
2021/06/29 02:34:57;;;;;;;11.37;7.83;;;18.90;99.90;;;;;;5031294;28;20433;-53
2021/06/29 02:37:23;;;;;;;10.52;7.28;;;18.90;99.90;;;;;;5031533;28;20399;-50
2021/06/29 02:39:49;;;;;;;10.07;7.10;;;19.00;99.90;;;;;;5032024;28;20378;-50
2021/06/29 02:42:17;;;;;;;9.80;7.40;;;19.00;99.90;;;;;;5030999;28;20445;-50
2021/06/29 02:44:43;;;;;;;13.25;8.07;;;19.00;99.90;;;;;;5031486;28;20450;-51
2021/06/29 02:47:09;;;;;;;10.88;7.90;;;19.10;99.90;;;;;;5030810;28;20415;-50
2021/06/29 02:49:35;;;;;;;10.70;7.60;;;19.00;99.90;;;;;;5031456;28;20383;-50
2021/06/29 02:52:00;;;;;;;10.30;7.82;;;19.10;99.90;;;;;;5030338;28;20379;-50
2021/06/29 02:54:26;;;;;;;11.73;7.30;;;19.10;99.90;;;;;;5031043;28;20383;-50
2021/06/29 02:56:52;;;;;;;12.50;8.30;;;19.10;99.90;;;;;;5031077;28;20455;-50
2021/06/29 02:59:17;;;;;;;12.00;7.85;;;19.20;99.90;;;;;;5030528;28;20483;-50
2021/06/29 03:01:44;;;;;;;9.13;7.47;;;19.20;99.90;;;;;;5031324;28;20902;-50
2021/06/29 03:04:10;;;;;;;9.75;7.20;;;19.10;99.90;;;;;;5029629;28;20415;-51
2021/06/29 03:06:36;;;;;;;10.63;8.05;;;19.10;99.90;;;;;;5029230;28;20450;-51
2021/06/29 03:09:04;;;;;;;12.10;7.50;;;19.10;99.90;;;;;;5030379;28;20371;-50
2021/06/29 03:11:31;;;;;;;12.80;8.60;;;19.20;99.90;;;;;;5031039;28;20380;-50
2021/06/29 03:13:56;;;;;;;13.43;8.35;;;19.10;99.90;;;;;;5030580;28;20440;-53
2021/06/29 03:16:22;;;;;;;13.20;9.00;;;19.00;99.90;;;;;;5030523;28;20552;-50
2021/06/29 03:18:48;;;;;;;10.85;8.23;;;19.00;99.90;;;;;;5030485;28;20381;-50
2021/06/29 03:21:14;;;;;;;9.87;7.10;;;18.90;99.90;;;;;;5029833;28;21144;-50
2021/06/29 03:23:40;;;;;;;10.60;7.90;;;18.90;99.90;;;;;;5030835;28;20406;-50
2021/06/29 03:26:06;;;;;;;14.03;8.50;;;18.90;99.90;;;;;;5029280;28;20395;-50
2021/06/29 03:28:32;;;;;;;13.57;8.05;;;18.90;99.90;;;;;;5030788;28;20391;-50
2021/06/29 03:30:58;;;;;;;11.80;8.30;;;18.90;99.90;;;;;;5029706;28;20422;-53
2021/06/29 03:33:23;;;;;;;12.82;8.10;;;18.90;99.90;;;;;;5030460;28;20426;-50
2021/06/29 03:35:49;;;;;;;12.40;9.10;;;18.90;99.90;;;;;;5030012;28;20399;-50
2021/06/29 03:38:15;;;;;;;13.07;8.87;;;18.90;99.90;;;;;;5029913;28;20383;-51
2021/06/29 03:40:41;;;;;;;12.45;8.00;;;19.00;99.90;;;;;;5029355;28;20533;-50
2021/06/29 03:43:06;;;;;;;12.40;8.98;;;19.00;99.90;;;;;;5029666;28;20384;-50
2021/06/29 03:45:32;;;;;;;11.63;8.85;;;19.00;99.90;;;;;;5030569;28;20395;-49
2021/06/29 03:47:58;;;;;;;13.80;8.82;;;18.90;99.90;;;;;;5029794;28;20399;-52
2021/06/29 03:50:26;;;;;;;12.90;8.90;;;19.00;99.90;;;;;;5030479;28;20387;-50
2021/06/29 03:52:53;;;;;;;12.32;9.88;;;18.90;99.90;;;;;;5030495;28;20931;-50
2021/06/29 03:55:19;;;;;;;14.43;9.40;;;18.80;99.90;;;;;;5028947;28;20414;-50
2021/06/29 03:57:45;;;;;;;15.75;9.90;;;18.70;99.90;;;;;;5029891;28;20865;-50
2021/06/29 04:00:11;;;;;;;14.87;9.53;;;18.70;99.90;;;;;;5029363;28;20379;-49
2021/06/29 04:02:37;;;;;;;13.25;8.98;;;18.60;99.90;;;;;;5029966;28;20604;-50
2021/06/29 04:05:07;;;;;;;16.52;8.80;;;18.50;99.90;;;;;;5029293;28;20483;-50
2021/06/29 04:07:34;;;;;;;12.80;8.80;;;18.60;99.90;;;;;;5030339;28;20403;-50
2021/06/29 04:10:00;;;;;;;11.63;8.00;;;18.60;99.90;;;;;;5026774;28;20383;-53
2021/06/29 04:12:26;;;;;;;13.30;8.70;;;18.60;99.90;;;;;;5029815;28;20723;-50
2021/06/29 04:14:53;;;;;;;11.80;8.40;;;18.70;99.90;;;;;;5029972;28;20414;-50
2021/06/29 04:17:18;;;;;;;13.20;8.50;;;18.80;99.90;;;;;;5029136;28;20853;-50
2021/06/29 04:19:44;;;;;;;14.65;8.95;;;18.90;99.90;;;;;;5029925;28;20383;-50
2021/06/29 04:22:10;;;;;;;11.45;8.35;;;19.00;99.90;;;;;;5029659;28;20398;-50
2021/06/29 04:24:36;;;;;;;11.83;7.80;;;19.10;99.90;;;;;;5029131;28;21529;-50
2021/06/29 04:27:03;;;;;;;12.23;7.95;;;19.10;99.90;;;;;;5035923;28;20417;-51
2021/06/29 04:29:29;;;;;;;10.50;8.48;;;19.20;99.90;;;;;;5040340;28;20884;-51
2021/06/29 04:31:55;;;;;;;12.00;8.90;;;19.20;99.90;;;;;;5029964;28;20375;-50
2021/06/29 04:34:20;;;;;;;12.43;8.30;;;19.10;99.90;;;;;;5028934;28;20991;-50
2021/06/29 04:36:46;;;;;;;12.55;7.50;;;19.10;99.90;;;;;;5028881;28;20921;-51
2021/06/29 04:39:12;;;;;;;10.83;8.17;;;19.10;99.90;;;;;;5029023;28;20480;-51
2021/06/29 04:41:38;;;;;;;10.93;8.30;;;19.10;99.90;;;;;;5029652;28;20379;-51
2021/06/29 04:44:05;;;;;;;12.17;8.70;;;19.20;99.90;;;;;;5028996;28;20425;-52
2021/06/29 04:46:31;;;;;;;11.93;9.65;;;19.00;99.90;;;;;;5029853;28;20393;-52
2021/06/29 04:48:57;;;;;;;14.60;9.82;;;19.00;99.90;;;;;;5029625;28;20478;-54
2021/06/29 04:51:23;;;;;;;13.17;9.57;;;18.90;99.90;;;;;;5029684;28;20379;-52
2021/06/29 04:53:49;;;;;;;12.40;9.30;;;18.80;99.90;;;;;;5029672;28;21172;-51
2021/06/29 04:56:17;;;;;;;11.13;8.83;;;18.80;99.90;;;;;;5028981;28;20711;-51
2021/06/29 04:58:50;;;;;;;14.57;9.90;;;18.70;99.90;;;;;;5029699;28;20420;-51
2021/06/29 05:01:16;;;;;;;13.48;9.57;;;18.80;99.90;;;;;;5028878;28;20456;-51
2021/06/29 05:03:41;;;;;;;15.75;9.65;;;18.70;99.90;;;;;;5029392;28;20419;-52
2021/06/29 05:06:07;;;;;;;14.18;9.35;;;18.70;99.90;;;;;;5028756;28;20885;-51
2021/06/29 05:08:33;;;;;;;11.10;8.63;;;18.80;99.90;;;;;;5029466;28;20899;-53
2021/06/29 05:10:59;;;;;;;11.13;8.32;;;18.80;99.90;;;;;;5028834;28;20385;-55
2021/06/29 05:13:24;;;;;;;13.75;9.70;;;18.80;99.90;;;;;;5034591;28;20428;-52
2021/06/29 05:15:50;;;;;;;11.20;8.47;;;19.00;99.90;;;;;;5041945;28;20398;-52
2021/06/29 05:18:16;;;;;;;15.70;8.67;;;19.10;99.90;;;;;;5035368;28;20397;-51
2021/06/29 05:20:42;;;;;;;11.95;8.90;;;19.20;99.90;;;;;;5028971;28;20388;-51
2021/06/29 05:23:08;;;;;;;14.75;8.65;;;19.20;99.90;;;;;;5028561;28;20379;-51
2021/06/29 05:25:33;;;;;;;11.20;8.47;;;19.20;99.90;;;;;;5029138;28;20379;-51
2021/06/29 05:27:59;;;;;;;10.20;8.50;;;19.30;99.90;;;;;;5029286;28;20379;-54
2021/06/29 05:30:25;;;;;;;14.23;8.30;;;19.30;99.90;;;;;;5029310;28;20448;-52
2021/06/29 05:32:51;;;;;;;11.63;8.47;;;19.40;99.90;;;;;;5029273;28;20924;-52
2021/06/29 05:35:17;;;;;;;12.02;9.00;;;19.40;99.90;;;;;;5028082;28;20479;-52
2021/06/29 05:37:43;;;;;;;11.37;8.90;;;19.50;99.90;;;;;;5029574;28;20383;-51
2021/06/29 05:40:09;;;;;;;13.35;9.10;;;19.50;99.90;;;;;;5029027;28;20470;-53
2021/06/29 05:42:35;;;;;;;13.55;9.48;;;19.50;99.90;;;;;;5029257;28;20449;-53
2021/06/29 05:45:01;;;;;;;12.07;8.60;;;19.50;99.90;;;;;;5028292;28;20462;-54
2021/06/29 05:47:27;;;;;;;11.35;9.10;;;19.40;99.90;;;;;;5028805;28;20382;-51
2021/06/29 05:49:53;;;;;;;13.50;9.40;;;19.50;99.90;;;;;;5031482;28;20466;-51
2021/06/29 05:52:19;;;;;;;12.68;9.52;;;19.60;99.90;;;;;;5025200;28;20505;-51
2021/06/29 05:54:45;;;;;;;13.20;10.00;;;19.50;99.90;;;;;;5035433;28;20387;-51
2021/06/29 05:57:14;;;;;;;14.70;10.10;;;19.30;99.90;;;;;;5031821;28;20445;-51
2021/06/29 05:59:41;;;;;;;14.50;9.40;;;20.70;99.90;;;;;;5030945;28;20889;-51
2021/06/29 06:02:08;;;;;;;12.73;9.73;;;19.40;99.90;;;;;;5030653;28;20379;-51
2021/06/29 06:04:34;;;;;;;15.55;9.70;;;19.50;99.90;;;;;;5031973;28;20429;-51
2021/06/29 06:07:00;;;;;;;12.70;9.30;;;19.40;99.90;;;;;;5030972;28;20415;-54
2021/06/29 06:09:26;;;;;;;14.20;9.70;;;19.50;99.90;;;;;;5031022;28;20394;-51
2021/06/29 06:11:51;;;;;;;14.90;9.80;;;19.50;99.90;;;;;;5032014;28;20806;-51
2021/06/29 06:14:17;;;;;;;12.40;9.07;;;19.50;99.90;;;;;;5030641;28;21200;-51
2021/06/29 06:16:43;;;;;;;14.80;9.33;;;19.60;99.90;;;;;;5031398;28;20426;-51
2021/06/29 06:19:09;;;;;;;11.73;8.50;;;19.80;99.90;;;;;;5029029;28;20391;-52
2021/06/29 06:21:34;;;;;;;14.70;9.40;;;20.00;99.90;;;;;;5031318;28;20753;-51
2021/06/29 06:24:00;;;;;;;12.23;8.97;;;20.20;99.90;;;;;;5030987;28;20418;-52
2021/06/29 06:26:26;;;;;;;14.70;8.70;;;20.40;99.90;;;;;;5031526;28;20403;-49
2021/06/29 06:28:51;;;;;;;10.48;7.70;;;20.60;99.90;;;;;;5030834;28;20383;-49
2021/06/29 06:31:17;;;;;;;10.43;7.30;;;20.80;99.90;;;;;;5030666;28;20380;-49
2021/06/29 06:33:43;;;;;;;12.47;8.10;;;20.90;99.90;;;;;;5030871;28;20776;-49
2021/06/29 06:36:09;;;;;;;9.70;7.33;;;21.10;99.90;;;;;;5030686;28;20477;-49
2021/06/29 06:38:34;;;;;;;8.85;6.05;;;21.40;99.90;;;;;;5030414;28;20741;-50
2021/06/29 06:41:00;;;;;;;9.50;6.00;;;23.00;99.90;;;;;;5030973;28;20470;-53
2021/06/29 06:43:26;;;;;;;8.77;5.67;;;21.90;99.90;;;;;;5029887;28;20419;-49
2021/06/29 06:45:51;;;;;;;8.98;6.22;;;22.10;99.90;;;;;;5031235;28;20470;-49
2021/06/29 06:48:17;;;;;;;8.60;5.93;;;22.10;99.90;;;;;;5030094;28;20379;-49
2021/06/29 06:50:42;;;;;;;10.10;5.28;;;22.30;99.90;;;;;;5031190;28;20399;-50
2021/06/29 06:53:08;;;;;;;7.03;4.70;;;22.70;99.90;;;;;;5023612;28;20411;-49
2021/06/29 06:55:34;;;;;;;7.25;4.78;;;23.50;99.90;;;;;;5030837;28;20470;-51
2021/06/29 06:58:00;;;;;;;8.57;4.13;;;24.80;99.90;;;;;;5030363;28;20741;-52
2021/06/29 07:00:26;;;;;;;6.80;3.80;;;25.80;99.90;;;;;;5029375;28;20390;-48
2021/06/29 07:02:54;;;;;;;6.80;3.35;;;27.30;99.90;;;;;;5030694;28;20566;-49
2021/06/29 07:05:20;;;;;;;5.85;2.92;;;28.40;99.90;;;;;;5029557;28;20518;-49
2021/06/29 07:07:46;;;;;;;6.03;3.23;;;28.80;99.90;;;;;;5030689;28;20485;-49
2021/06/29 07:10:12;;;;;;;6.50;3.70;;;29.20;99.90;;;;;;5029804;28;20413;-50
2021/06/29 07:12:38;;;;;;;6.05;3.13;;;29.10;99.90;;;;;;5030542;28;20379;-50
2021/06/29 07:15:04;;;;;;;7.20;4.50;;;29.90;99.90;;;;;;5029809;28;20461;-55
2021/06/29 07:17:32;;;;;;;7.15;4.60;;;30.50;99.90;;;;;;5030383;28;20383;-50
2021/06/29 07:19:58;;;;;;;6.07;4.15;;;31.80;99.90;;;;;;5028635;28;20702;-50
2021/06/29 07:22:23;;;;;;;5.70;3.20;;;32.10;96.80;;;;;;5028129;28;20383;-51
2021/06/29 07:24:49;;;;;;;6.57;5.65;;;32.40;96.80;;;;;;5030064;28;20905;-51
2021/06/29 07:27:14;;;;;;;5.75;2.58;;;33.00;93.10;;;;;;5029191;28;20416;-50
2021/06/29 07:29:40;;;;;;;5.40;2.73;;;32.50;92.40;;;;;;5035013;28;20913;-50
2021/06/29 07:32:06;;;;;;;5.90;2.30;;;32.40;92.60;;;;;;5030947;28;20391;-51
2021/06/29 07:34:32;;;;;;;7.10;5.00;;;31.90;92.00;;;;;;5029874;28;20444;-51
2021/06/29 07:36:58;;;;;;;6.45;2.47;;;31.00;93.70;;;;;;5030376;28;20391;-54
2021/06/29 07:39:24;;;;;;;6.25;2.50;;;30.20;96.40;;;;;;5028511;28;20387;-51
2021/06/29 07:41:49;;;;;;;6.03;2.20;;;29.90;96.80;;;;;;5029659;28;20375;-50
2021/06/29 07:44:15;;;;;;;6.77;4.10;;;29.80;97.80;;;;;;5029157;28;20407;-50
2021/06/29 07:46:41;;;;;;;6.03;3.70;;;29.10;98.20;;;;;;5029645;28;20459;-50
2021/06/29 07:49:06;;;;;;;7.00;2.92;;;29.70;99.30;;;;;;5028866;28;20529;-52
2021/06/29 07:51:32;;;;;;;5.70;3.10;;;30.40;97.40;;;;;;5029457;28;20379;-51
2021/06/29 07:53:59;;;;;;;6.30;3.20;;;31.00;96.50;;;;;;5029453;28;20845;-51
2021/06/29 07:56:25;;;;;;;5.90;3.05;;;31.00;94.80;;;;;;5028974;28;20379;-52
2021/06/29 07:58:51;;;;;;;6.10;3.17;;;31.40;94.80;;;;;;5023250;28;20406;-51
2021/06/29 08:01:18;;;;;;;5.82;2.70;;;31.90;95.20;;;;;;5033239;28;20404;-52
2021/06/29 08:03:45;;;;;;;6.25;2.30;;;31.90;93.30;;;;;;5033122;28;20970;-52
2021/06/29 08:06:11;;;;;;;6.10;3.28;;;31.90;94.10;;;;;;5028256;28;20494;-51
2021/06/29 08:08:37;;;;;;;5.78;2.30;;;31.90;91.90;;;;;;5029251;28;20885;-53
2021/06/29 08:11:05;;;;;;;5.13;2.20;;;31.80;94.30;;;;;;5029090;28;20841;-56
2021/06/29 08:13:31;;;;;;;5.22;2.30;;;31.90;92.20;;;;;;5029240;28;20385;-53
2021/06/29 08:15:57;;;;;;;5.25;2.20;;;31.90;91.70;;;;;;5028133;28;20375;-53
2021/06/29 08:18:24;;;;;;;5.50;2.30;;;31.90;92.90;;;;;;5027182;28;20387;-52
2021/06/29 08:20:50;;;;;;;5.40;2.20;;;31.60;93.00;;;;;;5028954;28;20371;-51
2021/06/29 08:23:16;;;;;;;7.40;2.53;;;32.20;92.70;;;;;;5027662;28;20387;-50
2021/06/29 08:25:43;;;;;;;5.00;2.10;;;33.30;89.30;;;;;;5029090;28;20901;-51
2021/06/29 08:28:11;;;;;;;6.30;2.50;;;33.60;88.30;;;;;;5028170;28;20440;-50
2021/06/29 08:30:37;;;;;;;6.03;2.78;;;32.30;88.90;;;;;;5029345;28;20413;-50
2021/06/29 08:33:02;;;;;;;5.70;2.60;;;32.20;90.10;;;;;;5030781;28;20780;-54
2021/06/29 08:35:28;;;;;;;5.90;2.50;;;32.50;90.80;;;;;;5030459;28;20398;-51
2021/06/29 08:37:54;;;;;;;5.40;2.60;;;33.00;87.30;;;;;;5028834;28;20694;-51
2021/06/29 08:40:20;;;;;;;5.00;2.30;;;33.30;87.80;;;;;;5028210;28;20375;-51
2021/06/29 08:42:46;;;;;;;6.40;2.30;;;33.00;84.60;;;;;;5029279;28;20741;-51
2021/06/29 08:45:14;;;;;;;5.00;3.00;;;33.20;84.50;;;;;;5027886;28;20411;-50
2021/06/29 08:47:41;;;;;;;5.97;4.10;;;32.50;86.00;;;;;;5028531;28;20391;-51
2021/06/29 08:50:11;;;;;;;6.50;4.73;;;30.70;90.40;;;;;;5028317;28;20429;-54
2021/06/29 08:52:37;;;;;;;6.10;4.40;;;29.40;91.20;;;;;;5028600;28;20432;-50
2021/06/29 08:55:08;;;;;;;6.25;3.95;;;29.40;94.50;;;;;;5028630;28;20470;-53
2021/06/29 08:57:34;;;;;;;6.07;3.75;;;30.40;90.80;;;;;;5029167;28;20391;-51
2021/06/29 09:00:00;;;;;;;5.30;3.10;;;31.60;86.50;;;;;;5028333;28;20391;-50
2021/06/29 09:02:27;;;;;;;5.07;2.40;;;32.80;83.60;;;;;;5028879;28;20677;-51
2021/06/29 09:04:56;;;;;;;5.70;3.10;;;34.90;76.00;;;;;;5033885;28;20437;-50
2021/06/29 09:07:28;;;;;;;5.50;2.90;;;35.70;77.10;;;;;;5028558;28;20434;-51
2021/06/29 09:09:59;;;;;;;5.88;4.78;;;34.60;72.80;;;;;;5029198;28;20789;-51
2021/06/29 09:12:48;;;;;;;5.80;4.10;;;32.50;78.10;;;;;;5034110;28;20383;-51
2021/06/29 09:15:47;;;;;;;6.50;3.90;;;29.70;91.00;;;;;;5022033;28;20391;-51
2021/06/29 09:18:12;;;;;;;5.70;2.38;;;28.70;95.60;;;;;;5009731;28;20397;-51
2021/06/29 09:20:41;;;;;;;5.63;2.30;;;30.40;93.40;;;;;;5032418;28;20396;-50
2021/06/29 09:23:13;;;;;;;5.95;2.40;;;32.00;90.20;;;;;;5031117;28;21630;-52
2021/06/29 09:25:44;;;;;;;6.60;2.20;;;33.10;85.50;;;;;;5037613;28;20900;-52
2021/06/29 09:28:18;;;;;;;5.60;2.50;;;34.10;80.80;;;;;;5032196;28;20951;-51
2021/06/29 09:30:46;;;;;;;4.90;2.60;;;35.50;74.40;;;;;;5034163;28;20399;-54
2021/06/29 09:33:20;;;;;;;5.20;2.50;;;36.80;66.30;;;;;;5036729;28;20569;-52
2021/06/29 09:35:50;;;;;;;5.50;2.10;;;38.30;57.40;;;;;;5038349;28;20410;-52
2021/06/29 09:38:22;;;;;;;5.22;2.00;;;38.90;54.60;;;;;;5037221;28;20395;-51
2021/06/29 09:41:04;;;;;;;5.13;2.47;;;38.00;53.10;;;;;;5040106;28;20397;-51
2021/06/29 09:43:33;;;;;;;7.15;4.35;;;38.20;52.90;;;;;;5038194;28;20995;-52
2021/06/29 09:46:02;;;;;;;6.47;4.15;;;36.90;53.90;;;;;;5038387;28;20403;-52
2021/06/29 09:48:50;;;;;;;7.20;4.50;;;34.80;59.80;;;;;;5030546;28;20401;-51
2021/06/29 09:51:38;;;;;;;6.45;5.15;;;34.60;61.50;;;;;;5031971;28;20477;-51
2021/06/29 09:54:10;;;;;;;6.10;4.60;;;33.70;65.70;;;;;;5038754;28;20454;-50
2021/06/29 09:56:43;;;;;;;6.50;5.00;;;32.00;69.80;;;;;;5037627;28;20397;-52
2021/06/29 09:59:26;;;;;;;5.95;4.90;;;30.10;77.90;;;;;;5034810;28;20402;-52
2021/06/29 10:02:08;;;;;;;6.38;4.88;;;29.00;84.90;;;;;;5030276;28;20747;-51
2021/06/29 10:04:34;;;;;;;6.65;5.57;;;28.60;90.20;;;;;;5031480;28;20454;-51
2021/06/29 10:07:17;;;;;;;6.20;3.50;;;28.30;90.30;;;;;;5030914;28;20451;-51
2021/06/29 10:09:42;;;;;;;6.25;4.10;;;28.50;89.70;;;;;;5031617;28;20448;-50
2021/06/29 10:12:08;;;;;;;6.85;4.70;;;29.70;84.20;;;;;;5031007;28;20869;-54
2021/06/29 10:14:35;;;;;;;6.32;4.78;;;31.90;81.40;;;;;;5031244;28;20406;-51
2021/06/29 10:17:01;;;;;;;6.40;4.77;;;32.20;76.80;;;;;;5031942;28;20474;-51
2021/06/29 10:22:02;;;;;;;6.70;4.30;;;32.00;75.20;;;;;;5031431;28;20418;-51
2021/06/29 10:24:30;;;;;;;5.10;4.10;;;31.50;75.10;;;;;;5030252;28;20411;-52
2021/06/29 10:26:58;;;;;;;5.32;3.72;;;31.50;79.20;;;;;;5031397;28;20520;-50
2021/06/29 10:29:27;;;;;;;7.28;4.20;;;32.60;75.20;;;;;;5030516;28;20478;-50
2021/06/29 10:31:59;;;;;;;6.10;4.10;;;32.90;69.20;;;;;;5031323;28;20387;-50
2021/06/29 10:34:25;;;;;;;5.85;3.75;;;32.50;70.90;;;;;;5029103;28;20394;-51
2021/06/29 10:36:54;;;;;;;6.00;4.40;;;31.60;72.30;;;;;;5031276;28;20399;-52
2021/06/29 10:39:24;;;;;;;8.02;4.22;;;30.60;74.00;;;;;;5030239;28;20379;-51
2021/06/29 10:42:01;;;;;;;7.85;4.07;;;30.10;79.90;;;;;;5030050;28;20462;-51
2021/06/29 10:44:28;;;;;;;6.38;4.40;;;29.80;80.50;;;;;;5030272;28;21343;-51
2021/06/29 10:46:55;;;;;;;8.18;5.25;;;30.30;82.50;;;;;;5031286;28;20371;-51
2021/06/29 10:49:45;;;;;;;7.93;4.40;;;30.80;81.40;;;;;;5030200;28;20383;-51
2021/06/29 10:52:22;;;;;;;7.32;5.07;;;31.10;81.70;;;;;;5030367;28;20418;-55
2021/06/29 10:54:55;;;;;;;6.35;4.60;;;30.20;82.90;;;;;;5030641;28;20789;-51
2021/06/29 10:57:36;;;;;;;6.20;4.50;;;30.10;86.60;;;;;;5029948;28;20391;-52
2021/06/29 11:00:15;;;;;;;7.47;4.70;;;30.30;85.50;;;;;;5032718;28;20447;-52
2021/06/29 11:02:42;;;;;;;6.50;4.32;;;30.40;85.50;;;;;;5031976;28;20474;-52
2021/06/29 11:05:10;;;;;;;6.95;4.40;;;30.50;82.40;;;;;;5035464;28;20506;-55
2021/06/29 11:07:39;;;;;;;6.22;4.70;;;30.40;82.10;;;;;;5034328;28;20411;-52
2021/06/29 11:10:28;;;;;;;6.60;3.60;;;30.00;83.60;;;;;;5039778;28;20480;-52
2021/06/29 11:12:57;;;;;;;8.57;6.68;;;29.90;86.20;;;;;;5023609;28;20411;-52
2021/06/29 11:15:55;;;;;;;6.25;4.70;;;29.20;87.70;;;;;;5029705;28;20865;-50
2021/06/29 11:18:40;;;;;;;7.30;4.60;;;28.60;89.20;;;;;;5030954;28;20402;-50
2021/06/29 11:21:09;;;;;;;6.43;4.70;;;28.60;90.40;;;;;;5023988;28;20956;-51
2021/06/29 11:23:35;;;;;;;6.65;4.95;;;28.70;90.30;;;;;;5029979;28;20476;-52
2021/06/29 11:26:13;;;;;;;7.00;5.30;;;28.60;91.50;;;;;;5030050;28;20904;-50
2021/06/29 11:28:45;;;;;;;7.95;5.05;;;28.80;90.50;;;;;;5030048;28;20848;-51
2021/06/29 11:31:25;;;;;;;6.50;5.10;;;28.80;90.10;;;;;;5030517;28;20454;-54
2021/06/29 11:34:03;;;;;;;5.82;3.65;;;28.60;90.80;;;;;;5040176;28;20808;-50
2021/06/29 11:39:00;;;;;;;6.22;4.22;;;29.20;90.10;;;;;;5029813;28;20391;-51
2021/06/29 11:41:29;;;;;;;6.77;4.77;;;29.10;90.80;;;;;;5029138;28;20375;-52
2021/06/29 11:43:57;;;;;;;7.30;4.38;;;28.70;90.70;;;;;;5029480;28;20501;-50
2021/06/29 11:46:52;;;;;;;6.63;4.82;;;28.40;91.40;;;;;;5029000;28;20429;-50
2021/06/29 11:49:29;;;;;;;7.60;4.50;;;28.30;92.10;;;;;;5033158;28;20394;-51
2021/06/29 11:51:58;;;;;;;6.72;5.28;;;28.50;91.50;;;;;;5028493;28;20422;-50
2021/06/29 11:54:36;;;;;;;6.55;5.28;;;28.90;90.90;;;;;;5024695;28;20765;-50
2021/06/29 11:57:14;;;;;;;7.25;4.95;;;29.00;87.80;;;;;;5032018;28;20390;-50
2021/06/29 11:59:40;;;;;;;8.55;4.53;;;29.00;90.20;;;;;;5031384;28;20470;-49
2021/06/29 12:02:17;;;;;;;8.25;4.80;;;28.90;91.70;;;;;;5029157;28;20383;-51
2021/06/29 12:04:53;;;;;;;6.00;4.43;;;28.90;91.50;;;;;;5032793;28;20476;-51
2021/06/29 12:07:30;;;;;;;6.20;4.65;;;29.20;90.60;;;;;;5028730;28;20427;-50
2021/06/29 12:09:56;;;;;;;5.75;4.18;;;29.50;90.10;;;;;;5034572;28;20427;-50
2021/06/29 12:12:24;;;;;;;6.20;4.90;;;29.40;88.10;;;;;;5030893;28;20489;-50
2021/06/29 12:15:08;;;;;;;8.38;5.22;;;29.60;87.00;;;;;;5036167;28;21055;-51
2021/06/29 12:17:35;;;;;;;6.60;4.68;;;29.70;88.10;;;;;;5021641;28;20387;-51
2021/06/29 12:20:10;;;;;;;7.00;4.40;;;29.90;87.00;;;;;;5033947;28;20764;-50
2021/06/29 12:22:38;;;;;;;6.90;4.70;;;30.00;86.40;;;;;;5030231;28;20448;-50
2021/06/29 12:25:06;;;;;;;7.00;5.20;;;29.70;86.90;;;;;;5034086;28;20875;-50
2021/06/29 12:27:33;;;;;;;5.55;3.80;;;29.50;88.70;;;;;;5030739;28;20414;-50
2021/06/29 12:30:18;;;;;;;6.00;3.70;;;28.60;92.00;;;;;;5033018;28;20397;-51
2021/06/29 12:32:43;;;;;;;7.87;4.67;;;28.50;92.10;;;;;;5035969;28;20396;-52
2021/06/29 12:35:11;;;;;;;6.20;4.68;;;28.70;92.30;;;;;;5033506;28;20765;-53
2021/06/29 12:37:59;;;;;;;6.10;4.90;;;28.60;91.60;;;;;;5029284;28;20792;-50
2021/06/29 12:40:28;;;;;;;6.70;4.90;;;28.30;93.40;;;;;;5032192;28;20400;-50
2021/06/29 12:42:54;;;;;;;6.80;4.80;;;27.90;93.70;;;;;;5035678;28;20395;-49
2021/06/29 12:45:21;;;;;;;6.70;3.33;;;27.40;95.20;;;;;;5030733;28;20423;-51
2021/06/29 12:48:00;;;;;;;7.60;3.38;;;27.00;97.10;;;;;;5032427;28;20887;-50
2021/06/29 12:50:25;;;;;;;6.63;3.40;;;27.00;97.40;;;;;;5034196;28;20401;-51
2021/06/29 12:52:54;;;;;;;7.30;4.20;;;26.90;97.90;;;;;;5034230;28;20447;-51